Time;durP1;ratioP1;P1;durP2;ratioP2;P2;SDS_P1;SDS_P2;PMS_P1;PMS_P2;Temp;Humidity;BMP_temperature;BMP_pressure;BME280_temperature;BME280_humidity;BME280_pressure;Samples;Min_cycle;Max_cycle;Signal;HPM_P1;HPM_P2
2021/06/01 00:20:46;;;;;;;6.50;5.77;;;11.50;99.90;;;;;;5057256;23;20499;-44
2021/06/01 00:23:12;;;;;;;6.80;5.27;;;11.40;99.90;;;;;;5037739;28;20455;-45
2021/06/01 00:25:39;;;;;;;6.27;5.67;;;11.40;99.90;;;;;;5037349;28;20513;-44
2021/06/01 00:28:05;;;;;;;7.57;6.10;;;11.20;99.90;;;;;;5037538;28;20973;-45
2021/06/01 00:30:32;;;;;;;6.87;5.23;;;11.10;99.90;;;;;;5036977;28;20749;-52
2021/06/01 00:33:02;;;;;;;6.40;5.80;;;11.10;99.90;;;;;;5037273;28;20726;-51
2021/06/01 00:35:33;;;;;;;5.93;5.43;;;11.10;99.90;;;;;;5036999;28;20455;-45
2021/06/01 00:38:01;;;;;;;6.20;5.60;;;11.20;99.90;;;;;;5037158;28;20484;-50
2021/06/01 00:40:29;;;;;;;6.73;5.60;;;11.20;99.90;;;;;;5036863;28;20489;-48
2021/06/01 00:42:56;;;;;;;6.50;5.90;;;11.20;99.90;;;;;;5037026;28;20474;-51
2021/06/01 00:45:25;;;;;;;7.63;6.73;;;11.10;99.90;;;;;;5037142;28;20463;-49
2021/06/01 00:47:52;;;;;;;6.63;6.03;;;11.00;99.90;;;;;;5037238;28;20501;-49
2021/06/01 00:50:24;;;;;;;9.53;6.57;;;11.10;99.90;;;;;;5036859;28;20770;-48
2021/06/01 00:52:51;;;;;;;6.93;6.23;;;11.00;99.90;;;;;;5037734;28;20459;-44
2021/06/01 00:55:20;;;;;;;7.83;6.13;;;11.10;99.90;;;;;;5036961;28;20935;-45
2021/06/01 00:57:46;;;;;;;7.27;6.57;;;11.10;99.90;;;;;;5036884;28;20491;-45
2021/06/01 01:00:29;;;;;;;6.23;5.63;;;11.00;99.90;;;;;;5036724;28;20467;-46
2021/06/01 01:02:56;;;;;;;5.90;5.30;;;11.00;99.90;;;;;;5037178;28;20463;-44
2021/06/01 01:05:25;;;;;;;6.57;5.97;;;11.10;99.90;;;;;;5028386;28;20474;-45
2021/06/01 01:08:05;;;;;;;8.70;5.67;;;11.10;99.90;;;;;;5035812;28;20779;-47
2021/06/01 01:10:33;;;;;;;5.93;5.50;;;11.00;99.90;;;;;;5024267;28;20777;-44
2021/06/01 01:13:01;;;;;;;6.23;5.67;;;11.00;99.90;;;;;;5040927;28;20467;-45
2021/06/01 01:15:30;;;;;;;6.30;5.70;;;10.90;99.90;;;;;;5040141;28;20463;-46
2021/06/01 01:18:02;;;;;;;6.40;5.80;;;10.90;99.90;;;;;;5040926;28;20463;-44
2021/06/01 01:20:35;;;;;;;6.23;5.63;;;10.90;99.90;;;;;;5040287;28;20850;-44
2021/06/01 01:23:10;;;;;;;8.23;5.47;;;10.90;99.90;;;;;;5039772;28;20502;-48
2021/06/01 01:25:47;;;;;;;7.40;5.67;;;10.80;99.90;;;;;;5040372;28;20758;-44
2021/06/01 01:28:28;;;;;;;12.30;6.13;;;10.90;99.90;;;;;;5040948;28;20913;-43
2021/06/01 01:31:02;;;;;;;6.50;5.23;;;10.80;99.90;;;;;;5040446;28;20557;-43
2021/06/01 01:33:34;;;;;;;8.50;5.57;;;10.80;99.90;;;;;;5040503;28;20463;-44
2021/06/01 01:36:04;;;;;;;6.27;5.60;;;10.70;99.90;;;;;;5040412;28;20495;-44
2021/06/01 01:38:31;;;;;;;8.07;6.07;;;10.80;99.90;;;;;;5040426;28;20884;-51
2021/06/01 01:41:10;;;;;;;5.70;5.20;;;10.80;99.90;;;;;;5039274;28;20462;-49
2021/06/01 01:43:37;;;;;;;6.50;5.47;;;10.70;99.90;;;;;;5040259;28;20911;-53
2021/06/01 01:46:10;;;;;;;7.57;5.13;;;10.60;99.90;;;;;;5039864;28;20463;-51
2021/06/01 01:48:59;;;;;;;6.00;5.50;;;10.60;99.90;;;;;;5040328;28;20469;-49
2021/06/01 01:51:30;;;;;;;6.63;6.13;;;10.60;99.90;;;;;;5040299;28;20782;-46
2021/06/01 01:53:59;;;;;;;6.37;5.13;;;10.60;99.90;;;;;;5040587;28;20459;-54
2021/06/01 01:56:31;;;;;;;6.57;5.50;;;10.50;99.90;;;;;;5039781;28;21000;-52
2021/06/01 01:58:59;;;;;;;5.63;5.13;;;10.50;99.90;;;;;;5040104;28;20787;-45
2021/06/01 02:01:31;;;;;;;6.00;5.43;;;10.40;99.90;;;;;;5040195;28;20916;-49
2021/06/01 02:04:00;;;;;;;5.83;5.30;;;10.30;99.90;;;;;;5029183;28;20539;-49
2021/06/01 02:06:27;;;;;;;5.90;4.90;;;10.30;99.90;;;;;;5038873;28;20444;-50
2021/06/01 02:08:54;;;;;;;10.30;6.33;;;10.40;99.90;;;;;;5039346;28;20466;-49
2021/06/01 02:11:21;;;;;;;7.07;6.37;;;10.30;99.90;;;;;;5039438;28;20532;-52
2021/06/01 02:13:50;;;;;;;6.20;5.50;;;10.20;99.90;;;;;;5039687;28;20456;-47
2021/06/01 02:16:17;;;;;;;8.03;6.10;;;10.00;99.90;;;;;;5039338;28;20826;-44
2021/06/01 02:18:44;;;;;;;6.90;6.20;;;10.00;99.90;;;;;;5039361;28;20495;-53
2021/06/01 02:21:21;;;;;;;6.30;5.70;;;10.00;99.90;;;;;;5039084;28;20466;-48
2021/06/01 02:23:54;;;;;;;6.13;5.37;;;10.00;99.90;;;;;;5039463;28;20474;-46
2021/06/01 02:26:30;;;;;;;6.07;5.47;;;10.00;99.90;;;;;;5039016;28;20458;-45
2021/06/01 02:29:01;;;;;;;6.00;5.50;;;9.90;99.90;;;;;;5039170;28;20466;-51
2021/06/01 02:31:33;;;;;;;7.53;6.07;;;9.90;99.90;;;;;;5038909;28;20462;-45
2021/06/01 02:34:01;;;;;;;6.50;5.57;;;10.00;99.90;;;;;;5039485;28;20899;-50
2021/06/01 02:36:31;;;;;;;6.03;5.50;;;10.00;99.90;;;;;;5038785;28;20499;-47
2021/06/01 02:38:59;;;;;;;5.20;4.70;;;10.00;99.90;;;;;;5038616;28;20459;-50
2021/06/01 02:41:32;;;;;;;5.90;5.00;;;9.90;99.90;;;;;;5038884;28;20558;-48
2021/06/01 02:44:00;;;;;;;6.53;5.90;;;9.90;99.90;;;;;;5039434;28;20880;-45
2021/06/01 02:46:27;;;;;;;5.87;5.27;;;9.80;99.90;;;;;;5039046;28;20459;-44
2021/06/01 02:48:54;;;;;;;6.43;5.27;;;9.80;99.90;;;;;;5038822;28;20907;-52
2021/06/01 02:51:21;;;;;;;5.70;5.10;;;9.80;99.90;;;;;;5038515;28;20470;-45
2021/06/01 02:53:52;;;;;;;7.37;5.40;;;9.80;99.90;;;;;;5039295;28;20863;-49
2021/06/01 02:56:20;;;;;;;6.07;5.43;;;9.80;99.90;;;;;;5038784;28;20808;-47
2021/06/01 02:58:48;;;;;;;5.73;5.23;;;9.70;99.90;;;;;;5039316;28;20792;-48
2021/06/01 03:01:15;;;;;;;5.13;4.67;;;9.70;99.90;;;;;;5038986;28;20835;-51
2021/06/01 03:03:47;;;;;;;9.13;5.23;;;9.70;99.90;;;;;;5031677;28;20474;-47
2021/06/01 03:06:14;;;;;;;6.60;4.90;;;9.70;99.90;;;;;;5034879;28;20758;-48
2021/06/01 03:08:41;;;;;;;6.43;5.80;;;9.70;99.90;;;;;;5037926;28;20514;-44
2021/06/01 03:11:10;;;;;;;6.70;5.53;;;9.60;99.90;;;;;;5037954;28;20459;-46
2021/06/01 03:13:37;;;;;;;5.70;5.07;;;9.70;99.90;;;;;;5037723;28;20468;-46
2021/06/01 03:16:05;;;;;;;5.80;4.90;;;9.60;99.90;;;;;;5038378;28;20494;-45
2021/06/01 03:18:32;;;;;;;6.33;5.33;;;9.60;99.90;;;;;;5038425;28;20900;-45
2021/06/01 03:20:58;;;;;;;7.87;5.80;;;9.60;99.90;;;;;;5037559;28;20463;-48
2021/06/01 03:23:25;;;;;;;5.37;4.87;;;9.50;99.90;;;;;;5038424;28;20458;-48
2021/06/01 03:25:52;;;;;;;6.47;5.00;;;9.40;99.90;;;;;;5038162;28;20524;-47
2021/06/01 03:28:21;;;;;;;7.00;5.40;;;9.40;99.90;;;;;;5038223;28;20748;-46
2021/06/01 03:30:48;;;;;;;7.17;5.30;;;9.40;99.90;;;;;;5038181;28;20459;-48
2021/06/01 03:33:15;;;;;;;6.73;4.80;;;9.40;99.90;;;;;;5038226;28;20490;-44
2021/06/01 03:35:42;;;;;;;5.93;5.33;;;9.30;99.90;;;;;;5038010;28;20899;-46
2021/06/01 03:38:09;;;;;;;8.60;6.20;;;9.30;99.90;;;;;;5037173;28;20467;-44
2021/06/01 03:40:36;;;;;;;6.53;5.70;;;9.30;99.90;;;;;;5038132;28;20831;-53
2021/06/01 03:43:03;;;;;;;5.83;5.23;;;9.30;99.90;;;;;;5037996;28;20486;-51
2021/06/01 03:45:31;;;;;;;6.90;5.73;;;9.30;99.90;;;;;;5038022;28;20467;-50
2021/06/01 03:47:58;;;;;;;5.97;5.43;;;9.30;99.90;;;;;;5038079;28;20459;-47
2021/06/01 03:50:25;;;;;;;6.63;6.00;;;9.20;99.90;;;;;;5038023;28;20471;-45
2021/06/01 03:52:52;;;;;;;7.00;6.23;;;9.30;99.90;;;;;;5037734;28;20890;-44
2021/06/01 03:55:20;;;;;;;6.43;5.83;;;9.30;99.90;;;;;;5037947;28;20463;-46
2021/06/01 03:57:47;;;;;;;6.80;5.40;;;9.30;99.90;;;;;;5037385;28;20522;-46
2021/06/01 04:00:17;;;;;;;6.17;5.67;;;9.30;99.90;;;;;;5037740;28;20463;-46
2021/06/01 04:02:45;;;;;;;5.90;5.30;;;9.30;99.90;;;;;;5034987;28;20758;-47
2021/06/01 04:05:12;;;;;;;7.47;5.70;;;9.30;99.90;;;;;;5027932;28;20775;-44
2021/06/01 04:07:39;;;;;;;5.53;5.03;;;9.40;99.90;;;;;;5036564;28;20462;-45
2021/06/01 04:10:07;;;;;;;7.83;6.53;;;9.40;99.90;;;;;;5036981;28;20520;-47
2021/06/01 04:12:34;;;;;;;6.83;6.07;;;9.50;99.90;;;;;;5037388;28;20467;-53
2021/06/01 04:15:01;;;;;;;7.87;6.20;;;9.50;99.90;;;;;;5037448;28;20903;-48
2021/06/01 04:17:27;;;;;;;6.37;5.77;;;9.50;99.90;;;;;;5037510;28;20802;-51
2021/06/01 04:19:55;;;;;;;6.53;5.90;;;9.60;99.90;;;;;;5037401;28;20491;-49
2021/06/01 04:22:22;;;;;;;7.73;6.27;;;9.60;99.90;;;;;;5037040;28;20455;-50
2021/06/01 04:24:49;;;;;;;13.70;6.20;;;9.60;99.90;;;;;;5037596;28;20466;-47
2021/06/01 04:27:19;;;;;;;7.10;6.40;;;9.70;99.90;;;;;;5036874;28;20459;-53
2021/06/01 04:29:45;;;;;;;6.70;6.03;;;9.80;99.90;;;;;;5037413;28;20914;-47
2021/06/01 04:32:12;;;;;;;8.93;6.33;;;9.80;99.90;;;;;;5035992;28;20467;-52
2021/06/01 04:34:42;;;;;;;8.37;6.20;;;9.80;99.90;;;;;;5036883;28;20467;-52
2021/06/01 04:37:10;;;;;;;6.17;5.60;;;9.90;99.90;;;;;;5036981;28;20499;-48
2021/06/01 04:39:37;;;;;;;9.23;6.37;;;10.00;99.90;;;;;;5026936;28;20462;-48
2021/06/01 04:42:04;;;;;;;6.10;5.10;;;10.10;99.90;;;;;;5040227;28;20475;-47
2021/06/01 04:44:31;;;;;;;6.80;6.20;;;10.30;99.90;;;;;;5041069;28;20462;-45
2021/06/01 04:46:58;;;;;;;8.37;6.30;;;10.30;99.90;;;;;;5040904;28;20470;-44
2021/06/01 04:49:24;;;;;;;7.00;6.40;;;10.40;99.90;;;;;;5040960;28;20470;-48
2021/06/01 04:51:51;;;;;;;7.43;6.23;;;10.50;99.90;;;;;;5041114;28;20470;-45
2021/06/01 04:54:19;;;;;;;6.37;5.77;;;10.60;99.90;;;;;;5040993;28;20976;-51
2021/06/01 04:56:46;;;;;;;6.43;5.60;;;10.80;99.90;;;;;;5041143;28;20487;-45
2021/06/01 04:59:12;;;;;;;6.13;5.37;;;10.90;99.90;;;;;;5040941;28;20465;-45
2021/06/01 05:01:39;;;;;;;6.00;5.40;;;11.00;99.90;;;;;;5040888;28;20498;-49
2021/06/01 05:04:05;;;;;;;9.30;6.13;;;11.10;99.90;;;;;;5030963;28;20864;-50
2021/06/01 05:06:33;;;;;;;5.83;5.33;;;11.30;99.90;;;;;;5040075;28;20463;-53
2021/06/01 05:09:00;;;;;;;6.50;5.87;;;11.50;99.90;;;;;;5040331;28;20442;-53
2021/06/01 05:11:29;;;;;;;9.00;6.33;;;11.70;99.90;;;;;;5040788;28;20475;-49
2021/06/01 05:13:55;;;;;;;5.47;4.97;;;11.80;99.90;;;;;;5040372;28;20466;-50
2021/06/01 05:16:22;;;;;;;5.67;5.17;;;11.90;99.90;;;;;;5040435;28;20947;-48
2021/06/01 05:18:49;;;;;;;6.10;5.23;;;12.10;99.90;;;;;;5040685;28;20489;-51
2021/06/01 05:21:15;;;;;;;9.47;5.57;;;12.20;99.90;;;;;;5040419;28;20761;-50
2021/06/01 05:23:43;;;;;;;6.13;4.83;;;12.40;99.90;;;;;;5040684;28;20896;-51
2021/06/01 05:26:09;;;;;;;5.60;5.13;;;12.50;99.90;;;;;;5040701;28;20875;-49
2021/06/01 05:28:37;;;;;;;6.40;5.00;;;12.70;99.90;;;;;;5040968;28;20508;-46
2021/06/01 05:31:13;;;;;;;6.23;5.20;;;12.90;99.90;;;;;;5040148;28;20466;-49
2021/06/01 05:33:43;;;;;;;6.03;4.63;;;13.20;99.90;;;;;;5040898;28;20437;-46
2021/06/01 05:36:09;;;;;;;5.80;5.30;;;13.40;99.90;;;;;;5040668;28;20551;-46
2021/06/01 05:38:39;;;;;;;5.90;4.43;;;13.60;99.90;;;;;;5041343;28;20455;-48
2021/06/01 05:41:05;;;;;;;5.23;4.83;;;14.00;99.90;;;;;;5040222;28;20467;-49
2021/06/01 05:43:33;;;;;;;5.30;4.73;;;14.30;99.90;;;;;;5040130;28;20470;-53
2021/06/01 05:46:01;;;;;;;5.87;5.30;;;14.60;99.90;;;;;;5039961;28;20474;-53
2021/06/01 05:48:27;;;;;;;8.23;5.30;;;15.00;99.90;;;;;;5040618;28;20466;-50
2021/06/01 05:50:55;;;;;;;10.07;5.60;;;15.30;98.30;;;;;;5040005;28;20525;-46
2021/06/01 05:53:24;;;;;;;5.50;4.20;;;15.60;96.80;;;;;;5039495;28;20552;-50
2021/06/01 05:55:51;;;;;;;4.90;4.50;;;15.90;95.80;;;;;;5037529;28;20577;-52
2021/06/01 05:58:18;;;;;;;5.43;5.00;;;16.20;96.20;;;;;;5041279;28;20517;-51
2021/06/01 06:00:45;;;;;;;5.50;5.00;;;16.40;92.20;;;;;;5040260;28;20895;-49
2021/06/01 06:03:14;;;;;;;4.77;4.37;;;16.60;91.90;;;;;;5032309;28;20474;-52
2021/06/01 06:05:41;;;;;;;7.43;4.50;;;17.00;91.00;;;;;;5030947;28;20557;-52
2021/06/01 06:08:09;;;;;;;6.03;4.83;;;17.30;84.00;;;;;;5039124;28;20463;-52
2021/06/01 06:10:35;;;;;;;4.43;4.00;;;17.50;84.70;;;;;;5039652;28;20463;-55
2021/06/01 06:13:03;;;;;;;5.40;4.87;;;17.80;81.90;;;;;;5039233;28;20906;-53
2021/06/01 06:15:29;;;;;;;4.70;4.37;;;18.10;77.90;;;;;;5039290;28;20467;-49
2021/06/01 06:18:07;;;;;;;4.70;4.30;;;18.20;74.00;;;;;;5039638;28;20590;-48
2021/06/01 06:20:36;;;;;;;5.30;4.93;;;18.60;77.10;;;;;;5039545;28;20584;-56
2021/06/01 06:23:05;;;;;;;5.90;4.70;;;19.00;73.80;;;;;;5019678;28;20806;-55
2021/06/01 06:25:32;;;;;;;5.00;4.60;;;19.50;70.80;;;;;;5019378;28;20470;-54
2021/06/01 06:28:01;;;;;;;5.43;4.70;;;19.70;70.40;;;;;;5019869;28;20757;-46
2021/06/01 06:30:28;;;;;;;14.07;5.23;;;20.00;68.30;;;;;;5019645;28;20471;-49
2021/06/01 06:32:55;;;;;;;4.50;4.10;;;20.30;65.00;;;;;;5019156;28;20475;-49
2021/06/01 06:35:21;;;;;;;4.40;3.90;;;20.70;63.10;;;;;;5019062;28;20463;-53
2021/06/01 06:37:49;;;;;;;5.97;4.40;;;20.80;66.30;;;;;;5019531;28;20505;-53
2021/06/01 06:40:16;;;;;;;5.83;5.27;;;20.80;62.90;;;;;;5019555;28;20498;-47
2021/06/01 06:42:43;;;;;;;5.47;4.37;;;21.20;64.70;;;;;;5019457;28;20881;-49
2021/06/01 06:45:15;;;;;;;4.60;4.30;;;21.50;63.30;;;;;;5019287;28;20558;-49
2021/06/01 06:47:54;;;;;;;5.17;4.77;;;21.90;61.30;;;;;;5019268;28;20559;-49
2021/06/01 06:50:23;;;;;;;4.00;3.80;;;22.00;59.60;;;;;;5019480;28;20468;-51
2021/06/01 06:52:51;;;;;;;4.70;3.93;;;21.90;55.00;;;;;;5019277;28;20460;-45
2021/06/01 06:55:18;;;;;;;4.93;4.40;;;21.90;58.50;;;;;;5018875;28;20774;-49
2021/06/01 06:57:50;;;;;;;4.90;4.50;;;22.30;57.00;;;;;;5018731;28;20503;-55
2021/06/01 07:00:19;;;;;;;4.83;4.50;;;22.80;54.30;;;;;;5019714;28;20475;-56
2021/06/01 07:02:46;;;;;;;4.30;3.53;;;22.70;53.30;;;;;;5020233;28;21018;-50
2021/06/01 07:05:16;;;;;;;4.37;4.03;;;22.70;52.70;;;;;;5031001;28;20753;-53
2021/06/01 07:07:55;;;;;;;4.23;3.83;;;22.80;53.00;;;;;;5038596;28;20469;-56
2021/06/01 07:10:23;;;;;;;5.13;4.77;;;22.80;55.60;;;;;;5019036;28;20838;-46
2021/06/01 07:12:51;;;;;;;4.17;3.80;;;23.40;57.30;;;;;;5024220;28;20455;-52
2021/06/01 07:15:40;;;;;;;5.27;4.87;;;23.90;51.80;;;;;;5038326;28;20753;-47
2021/06/01 07:18:07;;;;;;;4.70;4.30;;;23.90;51.00;;;;;;5028666;28;20959;-52
2021/06/01 07:20:34;;;;;;;4.17;3.87;;;24.10;49.20;;;;;;5038201;28;20526;-48
2021/06/01 07:23:09;;;;;;;4.93;4.50;;;24.10;49.50;;;;;;5037849;28;20463;-47
2021/06/01 07:25:36;;;;;;;4.37;3.97;;;24.40;49.50;;;;;;5039002;28;20459;-48
2021/06/01 07:28:03;;;;;;;4.03;3.83;;;24.60;48.90;;;;;;5038406;28;20470;-47
2021/06/01 07:30:33;;;;;;;4.47;4.10;;;24.40;47.60;;;;;;5038314;28;20513;-46
2021/06/01 07:33:01;;;;;;;4.17;3.87;;;24.60;46.90;;;;;;5037986;28;20462;-46
2021/06/01 07:35:28;;;;;;;4.07;3.77;;;24.50;47.40;;;;;;5037934;28;20474;-49
2021/06/01 07:37:57;;;;;;;4.30;4.00;;;24.70;47.30;;;;;;5037593;28;20491;-49
2021/06/01 07:40:26;;;;;;;4.40;3.70;;;25.10;47.60;;;;;;5038151;28;20532;-46
2021/06/01 07:42:56;;;;;;;4.10;3.80;;;25.30;45.90;;;;;;5037802;28;20474;-47
2021/06/01 07:45:24;;;;;;;3.83;3.63;;;25.60;44.90;;;;;;5037498;28;20883;-45
2021/06/01 07:47:50;;;;;;;5.30;4.10;;;25.70;44.10;;;;;;5037422;28;20463;-49
2021/06/01 07:50:18;;;;;;;3.73;3.50;;;25.50;43.40;;;;;;5038216;28;20459;-48
2021/06/01 07:52:44;;;;;;;4.00;3.80;;;25.60;43.80;;;;;;5038118;28;20761;-50
2021/06/01 07:55:12;;;;;;;4.43;4.13;;;25.70;40.20;;;;;;5037619;28;20463;-52
2021/06/01 07:57:42;;;;;;;5.90;3.80;;;25.50;39.80;;;;;;5036971;28;20491;-52
2021/06/01 08:00:13;;;;;;;3.63;3.33;;;25.40;39.90;;;;;;5037416;28;20502;-51
2021/06/01 08:02:40;;;;;;;4.00;3.70;;;25.60;40.20;;;;;;5033849;28;20537;-48
2021/06/01 08:05:10;;;;;;;4.23;3.50;;;25.50;40.70;;;;;;5030532;28;20467;-49
2021/06/01 08:07:43;;;;;;;4.00;3.70;;;25.60;40.20;;;;;;5036657;28;20532;-53
2021/06/01 08:10:10;;;;;;;4.40;4.10;;;25.90;39.30;;;;;;5036845;28;20466;-48
2021/06/01 08:12:37;;;;;;;4.23;3.93;;;26.00;38.70;;;;;;5037398;28;20471;-48
2021/06/01 08:15:07;;;;;;;4.13;3.80;;;26.00;40.20;;;;;;5037142;28;20569;-55
2021/06/01 08:17:33;;;;;;;3.67;3.40;;;25.80;39.90;;;;;;5037331;28;20954;-48
2021/06/01 08:20:09;;;;;;;4.30;3.37;;;25.80;39.10;;;;;;5037796;28;20923;-50
2021/06/01 08:22:36;;;;;;;4.17;3.97;;;25.50;38.80;;;;;;5037605;28;20726;-49
2021/06/01 08:25:04;;;;;;;5.30;4.30;;;25.50;39.10;;;;;;5043129;28;20909;-49
2021/06/01 08:27:30;;;;;;;3.80;3.50;;;25.90;40.30;;;;;;5040863;28;20554;-50
2021/06/01 08:30:00;;;;;;;4.43;4.23;;;26.30;41.40;;;;;;5040406;28;20616;-54
2021/06/01 08:32:28;;;;;;;4.03;3.73;;;26.70;38.90;;;;;;5038668;28;20477;-48
2021/06/01 08:34:54;;;;;;;3.73;3.53;;;27.00;39.10;;;;;;5037431;28;20895;-46
2021/06/01 08:37:21;;;;;;;4.00;3.70;;;27.20;38.80;;;;;;5037112;28;20501;-49
2021/06/01 08:39:48;;;;;;;4.53;4.13;;;26.80;38.50;;;;;;5036933;28;20459;-53
2021/06/01 08:42:14;;;;;;;5.00;3.87;;;26.80;37.90;;;;;;5038606;28;20467;-54
2021/06/01 08:44:41;;;;;;;3.70;3.50;;;26.60;40.10;;;;;;5039435;28;20773;-54
2021/06/01 08:47:09;;;;;;;4.10;3.80;;;26.50;37.20;;;;;;5037148;28;20465;-49
2021/06/01 08:49:43;;;;;;;4.47;4.07;;;26.70;39.10;;;;;;5036989;28;20469;-55
2021/06/01 08:52:13;;;;;;;4.47;4.17;;;26.80;39.50;;;;;;5039677;28;20891;-51
2021/06/01 08:54:40;;;;;;;3.97;3.77;;;27.00;37.00;;;;;;5036276;28;20461;-56
2021/06/01 08:57:08;;;;;;;4.60;4.30;;;26.70;37.90;;;;;;5038482;28;20495;-55
2021/06/01 08:59:40;;;;;;;4.00;3.80;;;26.70;38.30;;;;;;5037176;28;20481;-53
2021/06/01 09:02:07;;;;;;;5.00;4.60;;;26.80;37.70;;;;;;5037456;28;20476;-54
2021/06/01 09:04:53;;;;;;;4.27;4.00;;;27.00;38.70;;;;;;5027085;28;20471;-46
2021/06/01 09:07:36;;;;;;;3.90;3.70;;;27.10;37.20;;;;;;5042961;28;20459;-53
2021/06/01 09:10:20;;;;;;;4.50;4.20;;;27.20;36.70;;;;;;5042552;28;20498;-47
2021/06/01 09:13:28;;;;;;;3.97;3.67;;;27.40;38.60;;;;;;5037306;28;20902;-44
2021/06/01 09:21:45;;;;;;;3.23;2.93;;;28.10;34.20;;;;;;5036627;28;20458;-51
2021/06/01 09:24:14;;;;;;;4.07;3.77;;;28.00;37.20;;;;;;5044214;28;20470;-51
2021/06/01 09:27:06;;;;;;;4.80;3.80;;;28.40;35.60;;;;;;5048516;28;20483;-47
2021/06/01 09:29:34;;;;;;;4.00;3.70;;;28.40;34.70;;;;;;5050442;28;20569;-52
2021/06/01 09:32:11;;;;;;;3.67;3.47;;;28.60;34.40;;;;;;5050469;28;20462;-45
2021/06/01 09:34:41;;;;;;;4.13;3.93;;;28.70;35.80;;;;;;5047584;28;20474;-51
2021/06/01 09:37:27;;;;;;;4.30;3.90;;;28.90;35.10;;;;;;5043040;28;20495;-45
2021/06/01 09:40:11;;;;;;;4.73;3.50;;;29.20;34.30;;;;;;5040019;28;20482;-48
2021/06/01 09:42:43;;;;;;;5.00;4.23;;;29.50;33.80;;;;;;5042890;28;20459;-49
2021/06/01 09:45:16;;;;;;;3.90;3.70;;;29.70;34.80;;;;;;5044429;28;20813;-46
2021/06/01 09:47:51;;;;;;;3.33;3.13;;;28.90;32.20;;;;;;5042967;28;20764;-45
2021/06/01 09:50:25;;;;;;;3.90;3.40;;;28.60;35.10;;;;;;5042582;28;20760;-51
2021/06/01 10:31:09;;;;;;;4.00;3.80;;;29.60;33.00;;;;;;5072012;23;20618;-54
2021/06/01 10:33:38;;;;;;;4.07;3.87;;;29.90;32.90;;;;;;5020374;28;20888;-52
2021/06/01 10:36:28;;;;;;;4.20;3.90;;;30.00;33.20;;;;;;5020627;28;20808;-49
2021/06/01 10:44:54;;;;;;;3.97;3.67;;;30.60;31.50;;;;;;5020995;28;20467;-54
2021/06/01 10:50:35;;;;;;;4.30;3.90;;;30.70;31.50;;;;;;5019684;28;20447;-46
2021/06/01 10:53:18;;;;;;;4.20;3.90;;;30.50;30.60;;;;;;5026064;28;20542;-50
2021/06/01 10:56:04;;;;;;;4.10;3.90;;;30.50;30.80;;;;;;5029095;28;20518;-49
2021/06/01 10:59:10;;;;;;;4.60;4.30;;;30.50;31.10;;;;;;5025058;28;20503;-53
2021/06/01 11:01:50;;;;;;;4.20;3.80;;;30.90;31.40;;;;;;5025968;28;20815;-53
2021/06/01 11:04:26;;;;;;;3.77;3.47;;;30.60;32.10;;;;;;5019110;28;20464;-54
2021/06/01 11:09:51;;;;;;;3.93;3.63;;;30.30;31.00;;;;;;5012898;28;20742;-48
2021/06/01 11:12:43;;;;;;;3.33;3.10;;;30.90;30.80;;;;;;5022684;28;20460;-50
2021/06/01 11:15:27;;;;;;;4.33;3.93;;;30.80;29.30;;;;;;5029722;28;20495;-44
2021/06/01 11:18:15;;;;;;;3.90;3.23;;;30.40;29.50;;;;;;5031331;28;20496;-44
2021/06/01 11:21:11;;;;;;;3.53;3.23;;;30.20;31.60;;;;;;5025803;28;20459;-49
2021/06/01 11:33:18;;;;;;;3.80;3.50;;;30.90;30.30;;;;;;5038230;28;20493;-44
2021/06/01 11:35:47;;;;;;;3.97;3.60;;;31.10;30.00;;;;;;5039262;28;20490;-47
2021/06/01 11:38:22;;;;;;;3.83;3.33;;;31.00;29.80;;;;;;5035651;28;20521;-45
2021/06/01 11:43:36;;;;;;;7.13;3.53;;;31.10;29.90;;;;;;4991984;28;20431;-45
2021/06/01 11:46:09;;;;;;;3.60;3.40;;;31.50;31.50;;;;;;5029796;28;20522;-45
2021/06/01 12:25:52;;;;;;;4.13;3.83;;;31.00;27.60;;;;;;4683532;22;20489;-56
2021/06/01 12:30:54;;;;;;;3.80;3.60;;;31.00;28.30;;;;;;5028926;28;20459;-53
2021/06/01 12:31:06;;;;;;;3.87;3.57;;;31.20;28.00;;;;;;5027211;28;20459;-50
2021/06/01 12:33:38;;;;;;;3.63;3.43;;;30.90;27.90;;;;;;5036077;28;20455;-51
2021/06/01 12:41:53;;;;;;;3.07;2.97;;;31.90;28.50;;;;;;5017584;28;20803;-51
2021/06/01 12:44:20;;;;;;;3.90;3.60;;;32.20;28.10;;;;;;5020124;28;20867;-51
2021/06/01 12:47:06;;;;;;;4.40;4.10;;;32.10;27.70;;;;;;5036824;28;20459;-48
2021/06/01 13:20:49;;;;;;;5.03;4.70;;;31.00;33.00;;;;;;5010169;28;20435;-46
2021/06/01 13:23:46;;;;;;;3.60;3.30;;;30.80;34.20;;;;;;5020297;28;20460;-44
2021/06/01 14:11:29;;;;;;;3.87;3.60;;;29.90;35.70;;;;;;5519194;22;20480;31
2021/06/01 14:28:07;;;;;;;4.47;4.00;;;30.00;35.70;;;;;;4980706;28;20488;-52
2021/06/01 14:30:41;;;;;;;5.07;4.50;;;30.10;35.30;;;;;;4980570;28;20478;-48
2021/06/01 14:36:10;;;;;;;4.77;4.33;;;29.80;34.30;;;;;;4980338;28;20885;-47
2021/06/01 15:47:53;;;;;;;4.23;3.90;;;28.40;36.20;;;;;;5072002;28;20432;-54
2021/06/01 15:50:29;;;;;;;4.80;4.47;;;28.30;35.60;;;;;;5071569;28;20461;-51
2021/06/01 16:44:18;;;;;;;3.97;3.67;;;26.50;39.20;;;;;;5034829;28;20501;-50
2021/06/01 17:03:43;;;;;;;5.00;3.70;;;26.20;39.50;;;;;;5031279;28;20708;-50
2021/06/01 17:06:16;;;;;;;6.17;3.40;;;26.00;39.60;;;;;;5037753;28;20567;-45
2021/06/01 17:11:44;;;;;;;5.40;3.60;;;25.90;39.70;;;;;;5014208;28;20446;-44
2021/06/01 17:14:11;;;;;;;4.40;4.00;;;26.10;39.80;;;;;;5038318;28;20777;-44
2021/06/01 17:16:42;;;;;;;3.97;3.67;;;25.90;39.80;;;;;;5039535;28;20947;-46
2021/06/01 17:19:55;;;;;;;4.10;3.70;;;25.80;40.00;;;;;;5038634;28;20808;-48
2021/06/01 17:22:52;;;;;;;3.93;3.60;;;25.80;40.00;;;;;;5038179;28;20503;-50
2021/06/01 17:30:58;;;;;;;6.23;4.67;;;25.70;41.00;;;;;;5018194;28;20483;-52
2021/06/01 17:36:15;;;;;;;4.23;3.93;;;25.60;41.00;;;;;;5037439;28;20533;-47
2021/06/01 17:38:44;;;;;;;3.77;3.47;;;25.30;40.30;;;;;;5037482;28;20455;-46
2021/06/01 17:41:15;;;;;;;4.83;4.10;;;24.90;41.10;;;;;;5037949;28;20465;-46
2021/06/01 17:43:43;;;;;;;4.67;3.43;;;24.90;41.80;;;;;;5038045;28;20467;-48
2021/06/01 17:46:13;;;;;;;4.10;3.70;;;24.70;42.20;;;;;;5037621;28;20557;-46
2021/06/01 17:48:49;;;;;;;4.20;3.90;;;24.60;42.00;;;;;;5036724;28;20883;-49
2021/06/01 17:51:16;;;;;;;4.10;3.80;;;24.50;42.00;;;;;;5038066;28;20561;-46
2021/06/01 17:53:46;;;;;;;6.07;3.80;;;24.50;42.60;;;;;;5037405;28;20463;-50
2021/06/01 17:56:26;;;;;;;4.30;4.00;;;24.40;42.40;;;;;;5037786;28;20474;-47
2021/06/01 17:58:55;;;;;;;5.00;3.67;;;24.40;43.10;;;;;;5037661;28;20977;-49
2021/06/01 18:01:27;;;;;;;6.87;4.40;;;24.40;42.90;;;;;;5038332;28;20463;-50
2021/06/01 18:04:00;;;;;;;6.20;3.83;;;24.40;43.00;;;;;;5029922;28;20475;-48
2021/06/01 18:06:32;;;;;;;4.40;4.00;;;24.30;43.10;;;;;;5036164;28;20763;-55
2021/06/01 18:09:07;;;;;;;4.13;3.33;;;24.20;43.30;;;;;;5034278;28;20445;-53
2021/06/01 18:12:03;;;;;;;4.20;3.73;;;24.10;43.60;;;;;;5038171;28;20474;-53
2021/06/01 18:37:17;;;;;;;3.53;3.10;;;23.00;44.70;;;;;;5037553;28;20486;-49
2021/06/01 19:02:09;;;;;;;4.10;3.37;;;22.00;45.90;;;;;;5005497;28;20439;-48
2021/06/01 19:42:18;;;;;;;5.80;4.70;;;20.90;47.80;;;;;;5037521;28;20760;-50
2021/06/01 19:49:56;;;;;;;5.53;4.40;;;20.40;49.60;;;;;;5044066;28;20438;-50
2021/06/01 19:52:29;;;;;;;6.20;4.73;;;20.30;49.70;;;;;;5044523;28;20620;-55
2021/06/01 19:54:58;;;;;;;7.83;4.13;;;20.20;50.20;;;;;;5041094;28;20896;-48
2021/06/01 19:57:26;;;;;;;4.47;4.07;;;20.10;50.50;;;;;;5040968;28;20931;-50
2021/06/01 19:59:57;;;;;;;4.17;3.87;;;20.00;50.70;;;;;;5040709;28;21599;-51
2021/06/01 20:02:28;;;;;;;4.10;3.80;;;19.90;51.20;;;;;;5040307;28;20470;-49
2021/06/01 20:04:57;;;;;;;5.67;5.17;;;19.70;52.20;;;;;;5033429;28;20466;-45
2021/06/01 20:07:30;;;;;;;6.27;5.20;;;19.70;53.80;;;;;;5040063;28;20455;-45
2021/06/01 20:09:58;;;;;;;6.60;4.70;;;19.60;54.30;;;;;;5041210;28;20458;-45
2021/06/01 20:51:52;;;;;;;5.53;5.07;;;18.40;66.20;;;;;;4793665;23;20490;-45
2021/06/01 20:54:19;;;;;;;5.77;4.97;;;18.30;70.10;;;;;;4980228;28;20462;-45
2021/06/01 20:56:47;;;;;;;5.57;5.07;;;18.20;72.50;;;;;;4980203;28;20563;-45
2021/06/01 20:59:16;;;;;;;7.60;5.30;;;18.10;75.00;;;;;;4980055;28;20474;-45
2021/06/01 21:01:43;;;;;;;5.90;5.50;;;17.90;78.80;;;;;;4980766;28;20470;-45
2021/06/01 21:04:10;;;;;;;5.80;5.20;;;17.80;83.10;;;;;;4972173;28;20470;-44
2021/06/01 21:06:37;;;;;;;4.93;4.43;;;17.60;89.70;;;;;;4980710;28;20525;-45
2021/06/01 21:09:05;;;;;;;7.80;5.27;;;17.60;90.80;;;;;;4979568;28;20465;-46
2021/06/01 21:11:32;;;;;;;5.50;5.10;;;17.60;92.90;;;;;;4980026;28;20473;-50
2021/06/01 21:14:03;;;;;;;5.53;4.50;;;17.50;94.20;;;;;;4979697;28;20473;-48
2021/06/01 21:16:30;;;;;;;5.77;5.27;;;17.40;95.00;;;;;;4980215;28;20917;-47
2021/06/01 21:18:59;;;;;;;4.93;4.53;;;17.30;96.50;;;;;;4980006;28;20497;-48
2021/06/01 21:21:26;;;;;;;5.53;4.80;;;17.30;96.90;;;;;;4979115;28;20462;-47
2021/06/01 21:23:53;;;;;;;5.43;4.57;;;17.20;97.80;;;;;;4979762;28;20652;-51
2021/06/01 21:26:24;;;;;;;7.00;5.13;;;17.10;98.70;;;;;;4979911;28;20473;-52